Ashville, New York
Current Conditions -  °F | °C
As of 4:15 PM on Monday 24 Nov 2014 (Local Time) from KJHW Reporting Station
Overcast Overcast  
Wind Chill: 54°   Ceiling: 4800
Heat Index: 54°   Visibility: 10mi
Dew Point: 46°   Wind: 16mph
Humidity: 77%   Direction: 220°SW
Pressure: 29.43"   Gusts: 33mph
Location:  42.1°N, 79.38°W
Report Text: KJHW 242115Z 22014G29KT 10SM SCT023 BKN048 OVC090 12/08 A2943 RMK AO1
Loading
Personal Weather Stations






























Interactive Weather Map New forecast layout! Learn more

10-Day Weather Forecast

Advertisements
Track Severe Weather on mobile